createdAt,value
2022-09-05T00:01:52.963Z,99074.69
2022-09-05T00:04:24.471Z,99071.81
2022-09-05T00:06:36.981Z,99069.56
2022-09-05T00:09:08.599Z,99076.66
2022-09-05T00:11:41.324Z,99070.03
2022-09-05T00:13:57.158Z,99073.72
2022-09-05T00:16:24.435Z,99077.63
2022-09-05T00:22:10.853Z,99071.00
2022-09-05T00:24:27.648Z,99068.09
2022-09-05T00:25:32.303Z,99063.28
2022-09-05T00:27:41.884Z,99069.53
2022-09-05T00:31:51.144Z,99064.53
2022-09-05T00:32:42.231Z,99063.88
2022-09-05T00:34:51.131Z,99067.25
2022-09-05T00:36:55.315Z,99063.88
2022-09-05T00:39:03.345Z,99068.84
2022-09-05T00:41:11.337Z,99056.91
2022-09-05T00:43:27.862Z,99066.44
2022-09-05T00:45:35.218Z,99063.72
2022-09-05T00:47:53.863Z,99070.75
2022-09-05T00:50:02.088Z,99067.50
2022-09-05T00:52:28.369Z,99058.00
2022-09-05T00:54:50.560Z,99056.69
2022-09-05T00:57:08.982Z,99064.31
2022-09-05T00:59:58.620Z,99056.69
2022-09-05T01:02:23.266Z,99061.56
2022-09-05T01:04:38.521Z,99057.84
2022-09-05T01:07:09.471Z,99059.91
2022-09-05T01:09:26.371Z,99060.69
2022-09-05T01:11:54.592Z,99058.41
2022-09-05T01:14:18.330Z,99057.44
2022-09-05T01:16:32.690Z,99064.84
2022-09-05T01:19:05.922Z,99055.63
2022-09-05T01:21:47.514Z,99058.72
2022-09-05T01:24:13.828Z,99064.63
2022-09-05T01:26:26.830Z,99052.53
2022-09-05T01:29:18.739Z,99057.66
2022-09-05T01:31:37.066Z,99054.13
2022-09-05T01:33:54.311Z,99048.16
2022-09-05T01:36:18.738Z,99051.91
2022-09-05T01:38:33.197Z,99048.22
2022-09-05T01:40:38.872Z,99057.06
2022-09-05T01:42:46.318Z,99066.06
2022-09-05T01:45:29.695Z,99053.50
2022-09-05T01:48:01.080Z,99052.53
2022-09-05T01:50:16.196Z,99048.97
2022-09-05T01:52:25.101Z,99052.19
2022-09-05T01:55:04.408Z,99052.50
2022-09-05T01:57:50.532Z,99048.47
2022-09-05T02:00:07.040Z,99052.28
2022-09-05T02:03:04.390Z,99053.63
2022-09-05T02:05:48.297Z,99059.41
2022-09-05T02:08:00.071Z,99048.75
2022-09-05T02:10:30.913Z,99052.28
2022-09-05T02:13:04.409Z,99050.56
2022-09-05T02:15:16.193Z,99048.94
2022-09-05T02:17:49.796Z,99055.88
2022-09-05T02:20:09.271Z,99055.03
2022-09-05T02:22:18.877Z,99045.88
2022-09-05T02:24:35.911Z,99046.34
2022-09-05T02:26:50.130Z,99042.19
2022-09-05T02:29:11.652Z,99044.09
2022-09-05T02:31:24.898Z,99047.31
2022-09-05T02:33:34.385Z,99050.06
2022-09-05T02:35:42.994Z,99055.03
2022-09-05T02:39:34.877Z,99043.63
2022-09-05T02:45:05.938Z,99053.44
2022-09-05T02:45:17.868Z,99062.63
2022-09-05T02:45:53.805Z,99056.03
2022-09-05T02:48:15.286Z,99060.06
2022-09-05T02:57:03.254Z,99063.28
2022-09-05T02:57:35.416Z,99061.69
2022-09-05T02:57:39.220Z,99058.31
2022-09-05T02:59:15.790Z,99056.13
2022-09-05T03:01:42.274Z,99062.38
2022-09-05T03:04:22.440Z,99053.72
2022-09-05T03:06:41.240Z,99060.16
2022-09-05T03:09:16.575Z,99055.53
2022-09-05T03:11:38.715Z,99053.47
2022-09-05T03:14:18.662Z,99060.09
2022-09-05T03:16:47.193Z,99059.28
2022-09-05T03:19:28.427Z,99057.75
2022-09-05T03:21:48.106Z,99050.97
2022-09-05T03:24:05.567Z,99057.91
2022-09-05T03:26:35.747Z,99041.03
2022-09-05T03:29:18.854Z,99049.06
2022-09-05T03:31:33.285Z,99059.06
2022-09-05T03:34:08.445Z,99065.84
2022-09-05T03:36:44.877Z,99069.22
2022-09-05T03:39:23.804Z,99071.81
2022-09-05T03:41:56.752Z,99067.16
2022-09-05T03:44:29.362Z,99079.69
2022-09-05T03:47:05.025Z,99077.28
2022-09-05T03:56:20.322Z,99087.75
2022-09-05T03:57:08.253Z,99087.09
2022-09-05T03:57:24.065Z,99092.25
2022-09-05T03:57:52.383Z,99082.94
2022-09-05T04:00:09.339Z,99096.13
2022-09-05T04:05:15.224Z,99090.81
2022-09-05T04:08:18.259Z,99090.13
2022-09-05T04:08:23.603Z,99089.03
2022-09-05T04:09:53.966Z,99087.88
2022-09-05T04:12:00.840Z,99088.50
2022-09-05T04:14:27.180Z,99082.56
2022-09-05T04:16:33.777Z,99080.47
2022-09-05T04:18:42.986Z,99089.50
2022-09-05T04:21:07.809Z,99089.22
2022-09-05T04:23:26.017Z,99074.06
2022-09-05T04:25:55.850Z,99073.91
2022-09-05T04:28:19.228Z,99070.19
2022-09-05T04:30:46.329Z,99073.88
2022-09-05T04:33:03.384Z,99083.56
2022-09-05T04:35:26.040Z,99080.00
2022-09-05T04:37:48.504Z,99089.84
2022-09-05T04:39:51.918Z,99082.06
2022-09-05T04:42:06.473Z,99081.25
2022-09-05T04:44:15.758Z,99079.19
2022-09-05T04:46:27.226Z,99084.13
2022-09-05T04:48:47.442Z,99079.44
2022-09-05T04:51:03.325Z,99076.84
2022-09-05T04:53:36.914Z,99075.47
2022-09-05T04:55:50.812Z,99085.75
2022-09-05T04:58:07.321Z,99075.09
2022-09-05T05:03:27.514Z,99082.63
2022-09-05T05:06:10.846Z,99071.69
2022-09-05T05:06:14.284Z,99077.91
2022-09-05T05:08:17.178Z,99069.69
2022-09-05T05:18:02.406Z,99076.72
2022-09-05T05:18:03.083Z,99076.31
2022-09-05T05:18:15.778Z,99077.00
2022-09-05T05:18:56.534Z,99070.81
2022-09-05T05:21:25.095Z,99067.56
2022-09-05T05:23:37.324Z,99073.03
2022-09-05T05:25:51.469Z,99070.78
2022-09-05T05:28:22.588Z,99070.66
2022-09-05T05:30:33.383Z,99065.94
2022-09-05T05:32:46.020Z,99073.84
2022-09-05T05:35:01.734Z,99079.50
2022-09-05T05:37:11.397Z,99079.69
2022-09-05T05:39:24.062Z,99076.59
2022-09-05T05:41:51.425Z,99075.25
2022-09-05T05:43:54.702Z,99071.97
2022-09-05T05:46:01.487Z,99073.78
2022-09-05T05:48:12.549Z,99060.72
2022-09-05T05:50:44.410Z,99072.38
2022-09-05T05:53:05.662Z,99073.41
2022-09-05T05:55:58.463Z,99069.44
2022-09-05T05:58:17.560Z,99072.03
2022-09-05T06:01:08.604Z,99070.34
2022-09-05T06:03:39.855Z,99079.19
2022-09-05T06:06:07.434Z,99079.47
2022-09-05T06:10:49.936Z,99085.06
2022-09-05T06:14:49.961Z,99080.53
2022-09-05T06:15:09.409Z,99072.53
2022-09-05T06:16:06.655Z,99075.44
2022-09-05T06:18:10.617Z,99076.59
2022-09-05T06:22:07.380Z,99075.03
2022-09-05T06:23:38.742Z,99074.59
2022-09-05T06:26:15.659Z,99084.50
2022-09-05T06:28:54.480Z,99079.44
2022-09-05T06:31:30.308Z,99079.19
2022-09-05T06:33:40.300Z,99081.25
2022-09-05T06:36:10.558Z,99070.63
2022-09-05T06:38:16.302Z,99076.50
2022-09-05T06:40:29.169Z,99070.22
2022-09-05T06:43:08.158Z,99073.19
2022-09-05T06:45:28.461Z,99073.41
2022-09-05T06:47:35.865Z,99076.28
2022-09-05T06:49:50.856Z,99079.16
2022-09-05T06:52:28.718Z,99076.19
2022-09-05T06:54:37.821Z,99081.25
2022-09-05T06:56:44.191Z,99081.78
2022-09-05T06:58:58.918Z,99078.69
2022-09-05T07:01:08.651Z,99073.31
2022-09-05T07:03:42.327Z,99080.31
2022-09-05T07:05:55.873Z,99088.59
2022-09-05T07:08:34.156Z,99083.13
2022-09-05T07:10:40.082Z,99083.78
2022-09-05T07:12:52.211Z,99092.84
2022-09-05T07:15:37.316Z,99083.50
2022-09-05T07:18:09.088Z,99089.75
2022-09-05T07:20:22.484Z,99093.28
2022-09-05T07:22:49.268Z,99091.16
2022-09-05T07:24:55.596Z,99092.13
2022-09-05T07:27:00.993Z,99089.69
2022-09-05T07:29:06.689Z,99094.75
2022-09-05T07:31:27.366Z,99083.06
2022-09-05T07:33:44.373Z,99087.00
2022-09-05T07:35:51.011Z,99091.34
2022-09-05T07:38:49.011Z,99094.44
2022-09-05T07:41:01.677Z,99098.69
2022-09-05T07:43:15.046Z,99096.44
2022-09-05T07:45:27.143Z,99083.78
2022-09-05T07:47:36.871Z,99096.19
2022-09-05T07:49:56.587Z,99091.31
2022-09-05T07:56:47.608Z,99102.28
2022-09-05T07:56:59.244Z,99089.19
2022-09-05T07:57:32.427Z,99084.03
2022-09-05T07:59:40.893Z,99077.34
2022-09-05T08:01:48.518Z,99084.03
2022-09-05T08:03:59.161Z,99077.97
2022-09-05T08:06:55.440Z,99088.84
2022-09-05T08:09:21.250Z,99080.84
2022-09-05T08:11:28.439Z,99068.44
2022-09-05T08:13:40.688Z,99074.13
2022-09-05T08:16:04.283Z,99078.66
2022-09-05T08:18:38.078Z,99077.38
2022-09-05T08:21:11.528Z,99074.00
2022-09-05T08:23:29.605Z,99077.81
2022-09-05T08:25:48.372Z,99083.97
2022-09-05T08:28:20.867Z,99075.84
2022-09-05T08:30:26.475Z,99078.53
2022-09-05T08:33:10.368Z,99085.91
2022-09-05T08:35:22.674Z,99082.09
2022-09-05T08:37:30.981Z,99076.56
2022-09-05T08:39:34.865Z,99076.22
2022-09-05T08:42:03.382Z,99082.72
2022-09-05T08:46:44.899Z,99078.97
2022-09-05T08:47:03.650Z,99070.84
2022-09-05T08:49:38.602Z,99069.44
2022-09-05T08:51:56.456Z,99071.03
2022-09-05T08:54:26.961Z,99068.53
2022-09-05T08:56:52.708Z,99077.13
2022-09-05T08:59:32.514Z,99066.56
2022-09-05T09:02:45.585Z,99065.16
2022-09-05T09:05:01.171Z,99069.88
2022-09-05T09:07:51.166Z,99075.66
2022-09-05T09:10:05.577Z,99066.41
2022-09-05T09:12:29.717Z,99069.69
2022-09-05T09:14:41.483Z,99070.25
2022-09-05T09:17:06.886Z,99080.28
2022-09-05T09:19:29.415Z,99065.38
2022-09-05T09:21:41.488Z,99063.50
2022-09-05T09:23:50.734Z,99059.56
2022-09-05T09:26:19.189Z,99060.88
2022-09-05T09:28:52.930Z,99061.72
2022-09-05T09:31:22.349Z,99068.41
2022-09-05T09:33:53.876Z,99065.06
2022-09-05T09:36:08.177Z,99062.06
2022-09-05T09:38:40.619Z,99064.06
2022-09-05T09:41:31.176Z,99065.47
2022-09-05T09:44:05.971Z,99063.56
2022-09-05T09:46:20.759Z,99068.44
2022-09-05T09:48:53.365Z,99060.63
2022-09-05T09:50:58.970Z,99062.22
2022-09-05T09:53:37.216Z,99062.59
2022-09-05T09:56:06.987Z,99068.00
2022-09-05T09:58:30.838Z,99069.34
2022-09-05T10:01:01.345Z,99062.13
2022-09-05T10:05:28.860Z,99060.16
2022-09-05T10:10:46.002Z,99065.28
2022-09-05T10:10:49.405Z,99054.66
2022-09-05T10:12:01.303Z,99063.50
2022-09-05T10:14:47.560Z,99060.59
2022-09-05T10:17:01.611Z,99058.75
2022-09-05T10:25:19.384Z,99060.88
2022-09-05T10:27:50.181Z,99058.09
2022-09-05T10:30:31.963Z,99056.41
2022-09-05T10:35:21.320Z,99060.34
2022-09-05T10:36:00.802Z,99059.53
2022-09-05T10:38:11.522Z,99053.22
2022-09-05T10:40:19.874Z,99061.66
2022-09-05T10:42:25.523Z,99054.72
2022-09-05T10:44:42.577Z,99052.47
2022-09-05T10:47:06.360Z,99047.09
2022-09-05T10:49:14.020Z,99049.81
2022-09-05T10:51:45.741Z,99057.41
2022-09-05T10:54:25.497Z,99048.66
2022-09-05T10:56:39.927Z,99050.25
2022-09-05T11:02:18.722Z,99042.50
2022-09-05T11:02:23.409Z,99047.03
2022-09-05T11:04:37.116Z,99046.66
2022-09-05T11:06:56.200Z,99057.16
2022-09-05T11:09:16.409Z,99043.69
2022-09-05T11:11:28.265Z,99046.03
2022-09-05T11:13:51.806Z,99042.50
2022-09-05T11:16:13.467Z,99051.13
2022-09-05T11:18:22.450Z,99046.69
2022-09-05T11:20:45.020Z,99043.03
2022-09-05T11:22:53.272Z,99045.06
2022-09-05T11:25:02.796Z,99045.59
2022-09-05T11:27:26.346Z,99039.84
2022-09-05T11:29:35.280Z,99046.47
2022-09-05T11:34:44.201Z,99031.78
2022-09-05T11:40:05.888Z,99040.47
2022-09-05T11:40:09.970Z,99037.41
2022-09-05T11:40:35.188Z,99038.91
2022-09-05T11:43:15.292Z,99035.38
2022-09-05T11:45:33.215Z,99030.78
2022-09-05T11:47:44.734Z,99031.53
2022-09-05T11:50:31.577Z,99035.38
2022-09-05T11:52:43.726Z,99031.53
2022-09-05T11:55:05.055Z,99037.75
2022-09-05T11:57:33.091Z,99029.22
2022-09-05T12:00:28.211Z,99024.94
2022-09-05T12:02:52.937Z,99025.06
2022-09-05T12:05:49.606Z,99026.13
2022-09-05T12:08:09.228Z,99028.63
2022-09-05T12:10:46.675Z,99026.06
2022-09-05T12:13:07.878Z,99029.16
2022-09-05T12:15:34.341Z,99036.97
2022-09-05T12:18:19.459Z,99027.19
2022-09-05T12:20:36.027Z,99032.91
2022-09-05T12:23:01.941Z,99029.00
2022-09-05T12:25:24.819Z,99021.16
2022-09-05T12:28:03.871Z,99028.00
2022-09-05T12:30:22.763Z,99025.09
2022-09-05T12:36:01.456Z,99017.75
2022-09-05T12:40:30.215Z,99020.91
2022-09-05T12:40:58.239Z,99013.94
2022-09-05T12:41:39.049Z,99015.25
2022-09-05T12:44:39.325Z,99024.09
2022-09-05T12:46:33.566Z,99010.44
2022-09-05T12:49:07.217Z,99014.44
2022-09-05T12:51:45.020Z,99010.53
2022-09-05T12:53:53.301Z,99012.75
2022-09-05T12:59:22.646Z,99010.28
2022-09-05T13:03:01.185Z,99011.44
2022-09-05T13:03:03.725Z,99009.63
2022-09-05T13:04:16.925Z,99012.94
2022-09-05T13:06:47.137Z,99021.44
2022-09-05T13:08:59.382Z,99007.06
2022-09-05T13:14:50.629Z,99013.44
2022-09-05T13:14:53.612Z,99007.84
2022-09-05T13:16:10.769Z,99005.72
2022-09-05T13:21:08.631Z,99007.50
2022-09-05T13:23:31.377Z,98999.84
2022-09-05T13:25:37.246Z,99001.28
2022-09-05T13:27:49.727Z,99001.72
2022-09-05T13:32:16.243Z,99002.06
2022-09-05T13:37:59.735Z,98999.84
2022-09-05T13:38:14.752Z,99000.53
2022-09-05T13:38:30.437Z,99001.25
2022-09-05T13:40:19.774Z,98995.56
2022-09-05T13:42:25.782Z,98993.22
2022-09-05T13:44:30.354Z,98997.25
2022-09-05T13:46:45.692Z,98995.81
2022-09-05T13:51:47.072Z,98995.97
2022-09-05T13:53:58.549Z,98990.75
2022-09-05T13:56:23.161Z,98993.19
2022-09-05T13:58:40.113Z,98996.34
2022-09-05T14:00:43.353Z,98999.81
2022-09-05T14:03:40.809Z,98994.28
2022-09-05T14:06:09.980Z,98998.19
2022-09-05T14:09:35.168Z,99000.84
2022-09-05T14:11:48.359Z,98991.00
2022-09-05T14:14:04.815Z,98994.94
2022-09-05T14:16:24.495Z,98986.28
2022-09-05T14:19:01.385Z,98988.25
2022-09-05T14:21:16.711Z,98988.97
2022-09-05T14:23:25.201Z,98996.91
2022-09-05T14:25:32.958Z,98986.34
2022-09-05T14:27:39.567Z,98989.44
2022-09-05T14:29:52.347Z,98988.09
2022-09-05T14:37:34.721Z,98994.09
2022-09-05T14:37:44.166Z,98987.56
2022-09-05T14:38:04.220Z,98993.31
2022-09-05T14:40:29.613Z,98995.28
2022-09-05T14:42:45.495Z,98981.59
2022-09-05T14:45:13.135Z,98990.22
2022-09-05T14:47:47.519Z,98996.19
2022-09-05T14:49:51.305Z,98991.78
2022-09-05T14:51:55.452Z,98984.69
2022-09-05T14:54:01.922Z,98991.91
2022-09-05T14:59:37.750Z,98983.47
2022-09-05T15:02:53.744Z,98980.88
2022-09-05T15:03:00.657Z,98985.34
2022-09-05T15:06:13.874Z,98984.59
2022-09-05T15:10:52.503Z,98994.19
2022-09-05T15:12:21.029Z,98988.75
2022-09-05T15:13:20.672Z,98991.00
2022-09-05T15:15:57.548Z,98995.16
2022-09-05T15:18:17.670Z,98992.53
2022-09-05T15:20:29.723Z,98998.16
2022-09-05T15:22:35.445Z,98999.66
2022-09-05T15:24:38.465Z,98989.22
2022-09-05T15:26:56.918Z,98990.50
2022-09-05T15:29:13.688Z,99004.13
2022-09-05T15:31:20.336Z,99002.09
2022-09-05T15:33:26.343Z,99000.81
2022-09-05T15:35:37.995Z,98998.41
2022-09-05T15:37:42.937Z,99004.03
2022-09-05T15:39:45.692Z,99004.47
2022-09-05T15:41:48.732Z,98999.78
2022-09-05T15:44:01.354Z,99001.63
2022-09-05T15:46:05.712Z,98996.91
2022-09-05T15:48:22.765Z,99002.53
2022-09-05T15:50:26.823Z,99004.69
2022-09-05T15:52:47.489Z,99006.78
2022-09-05T15:55:01.428Z,99006.63
2022-09-05T15:57:09.141Z,98998.25
2022-09-05T15:59:24.575Z,99002.94
2022-09-05T16:01:58.313Z,99007.88
2022-09-05T16:08:34.166Z,99004.78
2022-09-05T16:10:29.838Z,99009.84
2022-09-05T16:10:36.592Z,99003.63
2022-09-05T16:13:53.900Z,99005.81
2022-09-05T16:20:15.020Z,99006.63
2022-09-05T16:23:29.887Z,99010.97
2022-09-05T16:23:30.680Z,99012.59
2022-09-05T16:23:41.560Z,99014.41
2022-09-05T16:25:57.875Z,99012.91
2022-09-05T16:28:16.173Z,99012.59
2022-09-05T16:30:25.009Z,99010.63
2022-09-05T16:32:33.179Z,99008.69
2022-09-05T16:35:10.576Z,99010.31
2022-09-05T16:37:24.204Z,99016.94
2022-09-05T16:39:32.525Z,99010.31
2022-09-05T16:41:57.181Z,99010.97
2022-09-05T16:44:16.381Z,99020.25
2022-09-05T16:46:41.971Z,99012.13
2022-09-05T16:48:48.062Z,99012.47
2022-09-05T16:51:34.731Z,99009.59
2022-09-05T16:53:58.589Z,99016.69
2022-09-05T16:56:13.820Z,99009.59
2022-09-05T16:58:21.266Z,99017.97
2022-09-05T17:00:24.097Z,99003.72
2022-09-05T17:02:34.407Z,99007.41
2022-09-05T17:05:04.447Z,99006.50
2022-09-05T17:07:20.085Z,99008.13
2022-09-05T17:09:26.273Z,99012.91
2022-09-05T17:11:33.661Z,99005.00
2022-09-05T17:13:49.670Z,99013.47
2022-09-05T17:15:52.648Z,99015.09
2022-09-05T17:18:20.044Z,99004.09
2022-09-05T17:20:30.866Z,99008.34
2022-09-05T17:27:29.776Z,99009.00
2022-09-05T17:29:29.820Z,99011.88
2022-09-05T17:29:49.898Z,99008.66
2022-09-05T17:33:17.417Z,99003.16
2022-09-05T17:35:32.636Z,99000.09
2022-09-05T17:37:44.271Z,98999.94
2022-09-05T17:40:18.029Z,98998.78
2022-09-05T17:42:36.436Z,98999.16
2022-09-05T17:44:54.411Z,99004.66
2022-09-05T17:47:42.679Z,99003.84
2022-09-05T17:49:48.012Z,98997.53
2022-09-05T17:51:53.634Z,98996.72
2022-09-05T17:54:16.190Z,99003.84
2022-09-05T17:56:44.818Z,98997.41
2022-09-05T17:59:18.557Z,98987.53
2022-09-05T18:01:32.549Z,98992.25
2022-09-05T18:03:38.263Z,98995.00
2022-09-05T18:05:57.067Z,98984.00
2022-09-05T18:08:00.428Z,98984.47
2022-09-05T18:10:14.579Z,98979.28
2022-09-05T18:13:11.680Z,98978.50
2022-09-05T18:14:53.968Z,98979.19
2022-09-05T18:17:47.873Z,98973.22
2022-09-05T18:19:57.723Z,98974.81
2022-09-05T18:22:06.370Z,98971.03
2022-09-05T18:24:15.610Z,98977.84
2022-09-05T18:26:22.458Z,98977.00
2022-09-05T18:28:53.340Z,98963.69
2022-09-05T18:30:56.276Z,98972.06
2022-09-05T18:33:56.046Z,98964.63
2022-09-05T18:35:37.223Z,98973.78
2022-09-05T18:37:42.128Z,98974.25
2022-09-05T18:39:45.128Z,98962.34
2022-09-05T18:41:49.403Z,98967.16
2022-09-05T18:44:13.826Z,98959.69
2022-09-05T18:46:28.910Z,98969.91
2022-09-05T18:49:48.920Z,98968.03
2022-09-05T18:51:16.361Z,98964.72
2022-09-05T18:53:27.380Z,98966.78
2022-09-05T18:56:12.181Z,98968.72
2022-09-05T18:58:02.587Z,98960.81
2022-09-05T19:00:10.568Z,98959.34
2022-09-05T19:02:44.247Z,98958.06
2022-09-05T19:04:56.102Z,98964.50
2022-09-05T19:07:07.893Z,98962.53
2022-09-05T19:09:15.218Z,98957.50
2022-09-05T19:11:28.730Z,98952.47
2022-09-05T19:13:34.589Z,98952.00
2022-09-05T19:16:18.463Z,98950.88
2022-09-05T19:18:36.924Z,98950.88
2022-09-05T19:21:12.061Z,98941.91
2022-09-05T19:23:23.213Z,98952.22
2022-09-05T19:25:33.227Z,98946.16
2022-09-05T19:35:15.464Z,98949.25
2022-09-05T19:36:44.166Z,98942.47
2022-09-05T19:36:57.589Z,98942.81
2022-09-05T19:37:08.887Z,98937.53
2022-09-05T19:37:26.270Z,98945.47
2022-09-05T19:43:14.246Z,98943.50
2022-09-05T19:47:29.755Z,98929.50
2022-09-05T19:47:48.705Z,98936.53
2022-09-05T19:47:48.901Z,98939.28
2022-09-05T19:49:26.561Z,98943.66
2022-09-05T19:51:29.546Z,98938.25
2022-09-05T19:53:35.279Z,98932.97
2022-09-05T19:55:40.535Z,98937.34
2022-09-05T19:57:49.538Z,98937.22
2022-09-05T20:00:02.641Z,98946.16
2022-09-05T20:02:26.210Z,98935.94
2022-09-05T20:04:38.965Z,98935.38
2022-09-05T20:06:47.294Z,98935.38
2022-09-05T20:08:50.071Z,98924.72
2022-09-05T20:11:01.314Z,98937.44
2022-09-05T20:13:24.658Z,98926.31
2022-09-05T20:15:36.236Z,98920.69
2022-09-05T20:17:43.216Z,98922.66
2022-09-05T20:19:46.210Z,98915.84
2022-09-05T20:21:50.405Z,98917.47
2022-09-05T20:23:56.932Z,98906.94
2022-09-05T20:26:03.324Z,98914.84
2022-09-05T20:28:27.452Z,98912.91
2022-09-05T20:30:34.965Z,98910.63
2022-09-05T20:32:48.671Z,98904.31
2022-09-05T20:37:47.508Z,98909.00
2022-09-05T20:43:08.561Z,98907.28
2022-09-05T20:43:22.840Z,98905.69
2022-09-05T20:43:28.126Z,98902.94
2022-09-05T20:44:48.630Z,98907.97
2022-09-05T20:54:05.271Z,98901.31
2022-09-05T20:54:06.843Z,98901.31
2022-09-05T20:54:20.539Z,98898.09
2022-09-05T20:54:34.659Z,98888.94
2022-09-05T20:56:43.054Z,98902.69
2022-09-05T20:58:50.326Z,98887.31
2022-09-05T21:01:21.660Z,98868.19
2022-09-05T21:03:27.646Z,98879.88
2022-09-05T21:05:32.933Z,98885.72
2022-09-05T21:07:38.941Z,98882.50
2022-09-05T21:09:59.914Z,98888.00
2022-09-05T21:12:12.618Z,98880.09
2022-09-05T21:14:30.489Z,98890.75
2022-09-05T21:16:41.944Z,98890.75
2022-09-05T21:18:45.057Z,98886.84
2022-09-05T21:21:29.025Z,98887.22
2022-09-05T21:23:37.296Z,98887.44
2022-09-05T21:25:53.486Z,98882.97
2022-09-05T21:28:02.687Z,98882.03
2022-09-05T21:30:30.602Z,98879.28
2022-09-05T21:32:41.326Z,98877.34
2022-09-05T21:34:49.670Z,98875.38
2022-09-05T21:37:04.592Z,98868.63
2022-09-05T21:39:10.716Z,98871.38
2022-09-05T21:41:16.567Z,98870.56
2022-09-05T21:47:39.994Z,98876.41
2022-09-05T21:47:48.871Z,98870.31
2022-09-05T21:48:06.694Z,98872.59
2022-09-05T21:50:09.808Z,98871.66
2022-09-05T21:52:22.301Z,98864.13
2022-09-05T21:59:00.479Z,98857.81
2022-09-05T21:59:18.252Z,98855.41
2022-09-05T21:59:41.400Z,98856.09
2022-09-05T22:01:52.264Z,98854.81
2022-09-05T22:03:58.559Z,98853.56
2022-09-05T22:06:04.177Z,98854.34
2022-09-05T22:08:13.389Z,98849.19
2022-09-05T22:10:15.996Z,98849.66
2022-09-05T22:12:30.374Z,98848.50
2022-09-05T22:14:33.855Z,98851.94
2022-09-05T22:16:44.907Z,98846.44
2022-09-05T22:18:51.236Z,98847.59
2022-09-05T22:21:29.562Z,98841.63
2022-09-05T22:23:16.733Z,98849.88
2022-09-05T22:25:31.003Z,98842.91
2022-09-05T22:27:38.399Z,98846.19
2022-09-05T22:29:41.646Z,98846.41
2022-09-05T22:31:44.683Z,98837.47
2022-09-05T22:33:50.968Z,98842.38
2022-09-05T22:35:54.819Z,98832.03
2022-09-05T22:38:10.563Z,98835.00
2022-09-05T22:40:14.664Z,98832.78
2022-09-05T22:42:17.369Z,98835.06
2022-09-05T22:44:20.051Z,98833.94
2022-09-05T22:46:23.263Z,98838.97
2022-09-05T22:48:25.950Z,98834.13
2022-09-05T22:50:28.712Z,98833.75
2022-09-05T22:52:31.405Z,98833.63
2022-09-05T22:54:37.309Z,98832.94
2022-09-05T22:56:40.007Z,98823.06
2022-09-05T22:58:45.541Z,98825.03
2022-09-05T23:00:48.237Z,98825.38
2022-09-05T23:03:00.070Z,98827.28
2022-09-05T23:05:02.778Z,98826.34
2022-09-05T23:07:05.983Z,98823.47
2022-09-05T23:09:10.010Z,98823.47
2022-09-05T23:11:14.949Z,98812.81
2022-09-05T23:13:17.535Z,98824.25
2022-09-05T23:15:20.259Z,98816.38
2022-09-05T23:17:22.935Z,98817.38
2022-09-05T23:19:25.538Z,98821.63
2022-09-05T23:21:28.187Z,98821.78
2022-09-05T23:23:31.118Z,98816.19
2022-09-05T23:25:35.382Z,98821.19
2022-09-05T23:27:38.758Z,98823.94
2022-09-05T23:29:41.341Z,98825.53
2022-09-05T23:31:44.076Z,98812.97
2022-09-05T23:33:46.724Z,98812.03
2022-09-05T23:35:49.548Z,98820.06
2022-09-05T23:37:52.095Z,98816.88
2022-09-05T23:39:54.796Z,98812.81
2022-09-05T23:41:57.411Z,98815.13
2022-09-05T23:44:00.975Z,98819.78
2022-09-05T23:46:04.937Z,98818.41
2022-09-05T23:48:07.694Z,98813.72
2022-09-05T23:50:12.101Z,98808.91
2022-09-05T23:52:14.760Z,98810.81
2022-09-05T23:54:17.579Z,98800.53
2022-09-05T23:56:20.160Z,98808.28
2022-09-05T23:58:23.058Z,98806.69
